sensor_id;sensor_type;location;lat;lon;timestamp;temperature;humidity
7494;DHT22;3788;49.902;8.590;2023-12-22T00:00:36;6.40;99.90
7494;DHT22;3788;49.902;8.590;2023-12-22T00:03:04;6.40;99.90
7494;DHT22;3788;49.902;8.590;2023-12-22T00:05:30;6.40;99.90
7494;DHT22;3788;49.902;8.590;2023-12-22T00:07:57;6.40;99.90
7494;DHT22;3788;49.902;8.590;2023-12-22T00:10:25;6.40;99.90
7494;DHT22;3788;49.902;8.590;2023-12-22T00:12:51;6.40;99.90
7494;DHT22;3788;49.902;8.590;2023-12-22T00:15:18;6.30;99.90
7494;DHT22;3788;49.902;8.590;2023-12-22T00:17:45;6.30;99.90
7494;DHT22;3788;49.902;8.590;2023-12-22T00:20:11;6.30;99.90
7494;DHT22;3788;49.902;8.590;2023-12-22T00:22:39;6.30;99.90
7494;DHT22;3788;49.902;8.590;2023-12-22T00:25:06;6.20;99.90
7494;DHT22;3788;49.902;8.590;2023-12-22T00:27:36;6.20;99.90
7494;DHT22;3788;49.902;8.590;2023-12-22T00:30:03;6.20;99.90
7494;DHT22;3788;49.902;8.590;2023-12-22T00:32:30;6.10;99.90
7494;DHT22;3788;49.902;8.590;2023-12-22T00:34:57;6.10;99.90
7494;DHT22;3788;49.902;8.590;2023-12-22T00:37:24;6.10;99.90
7494;DHT22;3788;49.902;8.590;2023-12-22T00:39:50;6.10;99.90
7494;DHT22;3788;49.902;8.590;2023-12-22T00:42:17;6.10;99.90
7494;DHT22;3788;49.902;8.590;2023-12-22T00:44:45;6.00;99.90
7494;DHT22;3788;49.902;8.590;2023-12-22T00:47:11;6.00;99.90
7494;DHT22;3788;49.902;8.590;2023-12-22T00:49:38;6.00;99.90
7494;DHT22;3788;49.902;8.590;2023-12-22T00:52:05;6.10;99.90
7494;DHT22;3788;49.902;8.590;2023-12-22T00:54:32;6.10;99.90
7494;DHT22;3788;49.902;8.590;2023-12-22T00:56:58;6.20;99.90
7494;DHT22;3788;49.902;8.590;2023-12-22T00:59:25;6.20;99.90
7494;DHT22;3788;49.902;8.590;2023-12-22T01:01:53;6.20;99.90
7494;DHT22;3788;49.902;8.590;2023-12-22T01:04:20;6.30;99.90
7494;DHT22;3788;49.902;8.590;2023-12-22T01:06:46;6.30;99.90
7494;DHT22;3788;49.902;8.590;2023-12-22T01:09:13;6.40;99.90
7494;DHT22;3788;49.902;8.590;2023-12-22T01:11:40;6.40;99.90
7494;DHT22;3788;49.902;8.590;2023-12-22T01:14:07;6.40;99.90
7494;DHT22;3788;49.902;8.590;2023-12-22T01:16:36;6.50;99.90
7494;DHT22;3788;49.902;8.590;2023-12-22T01:19:04;6.50;99.90
7494;DHT22;3788;49.902;8.590;2023-12-22T01:21:31;6.50;99.90
7494;DHT22;3788;49.902;8.590;2023-12-22T01:23:58;6.50;99.90
7494;DHT22;3788;49.902;8.590;2023-12-22T01:26:25;6.50;99.90
7494;DHT22;3788;49.902;8.590;2023-12-22T01:28:51;6.60;99.90
7494;DHT22;3788;49.902;8.590;2023-12-22T01:31:18;6.60;99.90
7494;DHT22;3788;49.902;8.590;2023-12-22T01:33:45;6.60;99.90
7494;DHT22;3788;49.902;8.590;2023-12-22T01:36:13;6.70;99.90
7494;DHT22;3788;49.902;8.590;2023-12-22T01:38:40;6.70;99.90
7494;DHT22;3788;49.902;8.590;2023-12-22T01:41:07;6.70;99.90
7494;DHT22;3788;49.902;8.590;2023-12-22T01:43:34;6.80;99.90
7494;DHT22;3788;49.902;8.590;2023-12-22T01:46:01;6.80;99.90
7494;DHT22;3788;49.902;8.590;2023-12-22T01:48:28;6.80;99.90
7494;DHT22;3788;49.902;8.590;2023-12-22T01:50:56;6.80;99.90
7494;DHT22;3788;49.902;8.590;2023-12-22T01:53:26;6.80;99.90
7494;DHT22;3788;49.902;8.590;2023-12-22T01:55:55;6.80;99.90
7494;DHT22;3788;49.902;8.590;2023-12-22T01:58:23;6.80;99.90
7494;DHT22;3788;49.902;8.590;2023-12-22T02:00:50;6.80;99.90
7494;DHT22;3788;49.902;8.590;2023-12-22T02:03:18;6.80;99.90
7494;DHT22;3788;49.902;8.590;2023-12-22T02:05:45;6.80;99.90
7494;DHT22;3788;49.902;8.590;2023-12-22T02:08:12;6.80;99.90
7494;DHT22;3788;49.902;8.590;2023-12-22T02:10:41;6.80;99.90
7494;DHT22;3788;49.902;8.590;2023-12-22T02:13:08;6.70;99.90
7494;DHT22;3788;49.902;8.590;2023-12-22T02:15:35;6.70;99.90
7494;DHT22;3788;49.902;8.590;2023-12-22T02:18:06;6.70;99.90
7494;DHT22;3788;49.902;8.590;2023-12-22T02:20:33;6.70;99.90
7494;DHT22;3788;49.902;8.590;2023-12-22T02:23:02;6.70;99.90
7494;DHT22;3788;49.902;8.590;2023-12-22T02:25:29;6.70;99.90
7494;DHT22;3788;49.902;8.590;2023-12-22T02:27:58;6.70;99.90
7494;DHT22;3788;49.902;8.590;2023-12-22T02:30:32;6.70;99.90
7494;DHT22;3788;49.902;8.590;2023-12-22T02:33:03;6.70;99.90
7494;DHT22;3788;49.902;8.590;2023-12-22T02:35:32;6.70;99.90
7494;DHT22;3788;49.902;8.590;2023-12-22T02:38:02;6.80;99.90
7494;DHT22;3788;49.902;8.590;2023-12-22T02:40:30;6.70;99.90
7494;DHT22;3788;49.902;8.590;2023-12-22T02:42:57;6.80;99.90
7494;DHT22;3788;49.902;8.590;2023-12-22T02:45:24;6.80;99.90
7494;DHT22;3788;49.902;8.590;2023-12-22T02:47:51;6.80;99.90
7494;DHT22;3788;49.902;8.590;2023-12-22T02:50:18;6.90;99.90
7494;DHT22;3788;49.902;8.590;2023-12-22T02:52:44;6.90;99.90
7494;DHT22;3788;49.902;8.590;2023-12-22T02:55:13;6.90;99.90
7494;DHT22;3788;49.902;8.590;2023-12-22T02:57:40;6.90;99.90
7494;DHT22;3788;49.902;8.590;2023-12-22T03:00:07;6.90;99.90
7494;DHT22;3788;49.902;8.590;2023-12-22T03:02:34;6.90;99.90
7494;DHT22;3788;49.902;8.590;2023-12-22T03:05:01;6.90;99.90
7494;DHT22;3788;49.902;8.590;2023-12-22T03:07:28;6.90;99.90
7494;DHT22;3788;49.902;8.590;2023-12-22T03:09:54;6.90;99.90
7494;DHT22;3788;49.902;8.590;2023-12-22T03:12:22;6.90;99.90
7494;DHT22;3788;49.902;8.590;2023-12-22T03:14:49;6.90;99.90
7494;DHT22;3788;49.902;8.590;2023-12-22T03:17:16;6.90;99.90
7494;DHT22;3788;49.902;8.590;2023-12-22T03:19:42;6.90;99.90
7494;DHT22;3788;49.902;8.590;2023-12-22T03:22:09;6.90;99.90
7494;DHT22;3788;49.902;8.590;2023-12-22T03:24:35;6.90;99.90
7494;DHT22;3788;49.902;8.590;2023-12-22T03:27:04;6.90;99.90
7494;DHT22;3788;49.902;8.590;2023-12-22T03:29:32;6.90;99.90
7494;DHT22;3788;49.902;8.590;2023-12-22T03:31:58;6.80;99.90
7494;DHT22;3788;49.902;8.590;2023-12-22T03:34:25;6.80;99.90
7494;DHT22;3788;49.902;8.590;2023-12-22T03:36:52;6.80;99.90
7494;DHT22;3788;49.902;8.590;2023-12-22T03:39:18;6.70;99.90
7494;DHT22;3788;49.902;8.590;2023-12-22T03:41:45;6.70;99.90
7494;DHT22;3788;49.902;8.590;2023-12-22T03:44:12;6.70;99.90
7494;DHT22;3788;49.902;8.590;2023-12-22T03:46:40;6.60;99.90
7494;DHT22;3788;49.902;8.590;2023-12-22T03:49:06;6.50;99.90
7494;DHT22;3788;49.902;8.590;2023-12-22T03:51:33;6.50;99.90
7494;DHT22;3788;49.902;8.590;2023-12-22T03:54:00;6.60;99.90
7494;DHT22;3788;49.902;8.590;2023-12-22T03:56:26;6.60;99.90
7494;DHT22;3788;49.902;8.590;2023-12-22T03:58:53;6.60;99.90
7494;DHT22;3788;49.902;8.590;2023-12-22T04:01:20;6.70;99.90
7494;DHT22;3788;49.902;8.590;2023-12-22T04:03:48;6.70;99.90
7494;DHT22;3788;49.902;8.590;2023-12-22T04:06:14;6.80;99.90
7494;DHT22;3788;49.902;8.590;2023-12-22T04:08:41;6.80;99.90
7494;DHT22;3788;49.902;8.590;2023-12-22T04:11:08;6.80;99.90
7494;DHT22;3788;49.902;8.590;2023-12-22T04:13:34;6.80;99.90
7494;DHT22;3788;49.902;8.590;2023-12-22T04:16:01;6.80;99.90
7494;DHT22;3788;49.902;8.590;2023-12-22T04:18:30;6.80;99.90
7494;DHT22;3788;49.902;8.590;2023-12-22T04:20:58;6.80;99.90
7494;DHT22;3788;49.902;8.590;2023-12-22T04:23:24;6.90;99.90
7494;DHT22;3788;49.902;8.590;2023-12-22T04:25:50;6.80;99.90
7494;DHT22;3788;49.902;8.590;2023-12-22T04:28:17;6.90;99.90
7494;DHT22;3788;49.902;8.590;2023-12-22T04:30:44;6.90;99.90
7494;DHT22;3788;49.902;8.590;2023-12-22T04:33:11;6.90;99.90
7494;DHT22;3788;49.902;8.590;2023-12-22T04:35:37;6.90;99.90
7494;DHT22;3788;49.902;8.590;2023-12-22T04:38:05;7.00;99.90
7494;DHT22;3788;49.902;8.590;2023-12-22T04:40:32;7.00;99.90
7494;DHT22;3788;49.902;8.590;2023-12-22T04:42:59;7.00;99.90
7494;DHT22;3788;49.902;8.590;2023-12-22T04:45:26;7.00;99.90
7494;DHT22;3788;49.902;8.590;2023-12-22T04:47:52;7.00;99.90
7494;DHT22;3788;49.902;8.590;2023-12-22T04:50:19;7.00;99.90
7494;DHT22;3788;49.902;8.590;2023-12-22T04:52:46;7.00;99.90
7494;DHT22;3788;49.902;8.590;2023-12-22T04:55:14;7.10;99.90
7494;DHT22;3788;49.902;8.590;2023-12-22T04:57:41;7.10;99.90
7494;DHT22;3788;49.902;8.590;2023-12-22T05:00:08;7.10;99.90
7494;DHT22;3788;49.902;8.590;2023-12-22T05:02:35;7.10;99.90
7494;DHT22;3788;49.902;8.590;2023-12-22T05:05:02;7.10;99.90
7494;DHT22;3788;49.902;8.590;2023-12-22T05:07:28;7.10;99.90
7494;DHT22;3788;49.902;8.590;2023-12-22T05:09:55;7.10;99.90
7494;DHT22;3788;49.902;8.590;2023-12-22T05:12:23;7.10;99.90
7494;DHT22;3788;49.902;8.590;2023-12-22T05:14:50;7.10;99.90
7494;DHT22;3788;49.902;8.590;2023-12-22T05:17:17;7.10;99.90
7494;DHT22;3788;49.902;8.590;2023-12-22T05:19:43;7.00;99.90
7494;DHT22;3788;49.902;8.590;2023-12-22T05:22:10;7.00;99.90
7494;DHT22;3788;49.902;8.590;2023-12-22T05:24:37;7.10;99.90
7494;DHT22;3788;49.902;8.590;2023-12-22T05:27:04;7.10;99.90
7494;DHT22;3788;49.902;8.590;2023-12-22T05:29:32;7.10;99.90
7494;DHT22;3788;49.902;8.590;2023-12-22T05:31:59;7.10;99.90
7494;DHT22;3788;49.902;8.590;2023-12-22T05:34:25;7.10;99.90
7494;DHT22;3788;49.902;8.590;2023-12-22T05:36:52;7.10;99.90
7494;DHT22;3788;49.902;8.590;2023-12-22T05:39:19;7.10;99.90
7494;DHT22;3788;49.902;8.590;2023-12-22T05:41:45;7.10;99.90
7494;DHT22;3788;49.902;8.590;2023-12-22T05:44:12;7.10;99.90
7494;DHT22;3788;49.902;8.590;2023-12-22T05:46:40;7.10;99.90
7494;DHT22;3788;49.902;8.590;2023-12-22T05:49:07;7.10;99.90
7494;DHT22;3788;49.902;8.590;2023-12-22T05:51:37;7.10;99.90
7494;DHT22;3788;49.902;8.590;2023-12-22T05:54:05;7.10;99.90
7494;DHT22;3788;49.902;8.590;2023-12-22T05:56:31;7.10;99.90
7494;DHT22;3788;49.902;8.590;2023-12-22T05:58:59;7.20;99.90
7494;DHT22;3788;49.902;8.590;2023-12-22T06:01:26;7.20;99.90
7494;DHT22;3788;49.902;8.590;2023-12-22T06:03:54;7.20;99.90
7494;DHT22;3788;49.902;8.590;2023-12-22T06:06:21;7.30;99.90
7494;DHT22;3788;49.902;8.590;2023-12-22T06:08:48;7.20;99.90
7494;DHT22;3788;49.902;8.590;2023-12-22T06:11:15;7.30;99.90
7494;DHT22;3788;49.902;8.590;2023-12-22T06:13:42;7.20;99.90
7494;DHT22;3788;49.902;8.590;2023-12-22T06:16:11;7.20;99.90
7494;DHT22;3788;49.902;8.590;2023-12-22T06:18:38;7.20;99.90
7494;DHT22;3788;49.902;8.590;2023-12-22T06:21:06;7.20;99.90
7494;DHT22;3788;49.902;8.590;2023-12-22T06:23:33;7.20;99.90
7494;DHT22;3788;49.902;8.590;2023-12-22T06:26:00;7.20;99.90
7494;DHT22;3788;49.902;8.590;2023-12-22T06:28:27;7.20;99.90
7494;DHT22;3788;49.902;8.590;2023-12-22T06:30:54;7.10;99.90
7494;DHT22;3788;49.902;8.590;2023-12-22T06:33:21;7.10;99.90
7494;DHT22;3788;49.902;8.590;2023-12-22T06:35:47;7.10;99.90
7494;DHT22;3788;49.902;8.590;2023-12-22T06:38:20;7.10;99.90
7494;DHT22;3788;49.902;8.590;2023-12-22T06:40:46;7.10;99.90
7494;DHT22;3788;49.902;8.590;2023-12-22T06:43:13;7.10;99.90
7494;DHT22;3788;49.902;8.590;2023-12-22T06:45:40;7.10;99.90
7494;DHT22;3788;49.902;8.590;2023-12-22T06:48:09;7.10;99.90
7494;DHT22;3788;49.902;8.590;2023-12-22T06:50:36;7.00;99.90
7494;DHT22;3788;49.902;8.590;2023-12-22T06:53:04;7.00;99.90
7494;DHT22;3788;49.902;8.590;2023-12-22T06:55:34;6.90;99.90
7494;DHT22;3788;49.902;8.590;2023-12-22T06:58:00;6.80;99.90
7494;DHT22;3788;49.902;8.590;2023-12-22T07:00:27;6.80;99.90
7494;DHT22;3788;49.902;8.590;2023-12-22T07:02:54;6.80;99.90
7494;DHT22;3788;49.902;8.590;2023-12-22T07:05:32;6.70;99.90
7494;DHT22;3788;49.902;8.590;2023-12-22T07:07:59;6.70;99.90
7494;DHT22;3788;49.902;8.590;2023-12-22T07:10:26;6.70;99.90
7494;DHT22;3788;49.902;8.590;2023-12-22T07:12:54;6.70;99.90
7494;DHT22;3788;49.902;8.590;2023-12-22T07:15:20;6.70;99.90
7494;DHT22;3788;49.902;8.590;2023-12-22T07:17:47;6.80;99.90
7494;DHT22;3788;49.902;8.590;2023-12-22T07:20:16;6.80;99.90
7494;DHT22;3788;49.902;8.590;2023-12-22T07:22:48;6.80;99.90
7494;DHT22;3788;49.902;8.590;2023-12-22T07:25:15;6.80;99.90
7494;DHT22;3788;49.902;8.590;2023-12-22T07:27:44;6.90;99.90
7494;DHT22;3788;49.902;8.590;2023-12-22T07:30:13;6.90;99.90
7494;DHT22;3788;49.902;8.590;2023-12-22T07:32:45;6.90;99.90
7494;DHT22;3788;49.902;8.590;2023-12-22T07:35:14;6.90;99.90
7494;DHT22;3788;49.902;8.590;2023-12-22T07:37:41;7.00;99.90
7494;DHT22;3788;49.902;8.590;2023-12-22T07:40:09;7.00;99.90
7494;DHT22;3788;49.902;8.590;2023-12-22T07:42:36;7.00;99.90
7494;DHT22;3788;49.902;8.590;2023-12-22T07:45:04;7.10;99.90
7494;DHT22;3788;49.902;8.590;2023-12-22T07:47:33;7.10;99.90
7494;DHT22;3788;49.902;8.590;2023-12-22T07:50:00;7.10;99.90
7494;DHT22;3788;49.902;8.590;2023-12-22T07:52:27;7.10;99.90
7494;DHT22;3788;49.902;8.590;2023-12-22T07:54:54;7.10;99.90
7494;DHT22;3788;49.902;8.590;2023-12-22T07:57:20;7.20;99.90
7494;DHT22;3788;49.902;8.590;2023-12-22T07:59:47;7.20;99.90
7494;DHT22;3788;49.902;8.590;2023-12-22T08:02:14;7.30;99.90
7494;DHT22;3788;49.902;8.590;2023-12-22T08:04:42;7.40;99.90
7494;DHT22;3788;49.902;8.590;2023-12-22T08:07:08;7.50;99.90
7494;DHT22;3788;49.902;8.590;2023-12-22T08:09:35;7.60;99.90
7494;DHT22;3788;49.902;8.590;2023-12-22T08:12:02;7.60;99.90
7494;DHT22;3788;49.902;8.590;2023-12-22T08:14:30;7.70;99.90
7494;DHT22;3788;49.902;8.590;2023-12-22T08:16:57;7.70;99.90
7494;DHT22;3788;49.902;8.590;2023-12-22T08:19:23;7.80;99.90
7494;DHT22;3788;49.902;8.590;2023-12-22T08:21:53;7.80;99.90
7494;DHT22;3788;49.902;8.590;2023-12-22T08:24:20;7.80;99.90
7494;DHT22;3788;49.902;8.590;2023-12-22T08:26:47;7.90;99.90
7494;DHT22;3788;49.902;8.590;2023-12-22T08:29:14;7.90;99.90
7494;DHT22;3788;49.902;8.590;2023-12-22T08:31:41;7.90;99.90
7494;DHT22;3788;49.902;8.590;2023-12-22T08:34:09;8.00;99.90
7494;DHT22;3788;49.902;8.590;2023-12-22T08:36:35;8.00;99.90
7494;DHT22;3788;49.902;8.590;2023-12-22T08:39:03;7.90;99.90
7494;DHT22;3788;49.902;8.590;2023-12-22T08:41:31;7.90;99.90
7494;DHT22;3788;49.902;8.590;2023-12-22T08:44:01;7.80;99.90
7494;DHT22;3788;49.902;8.590;2023-12-22T08:46:28;7.70;99.90
7494;DHT22;3788;49.902;8.590;2023-12-22T08:48:55;7.70;99.90
7494;DHT22;3788;49.902;8.590;2023-12-22T08:51:21;7.60;99.90
7494;DHT22;3788;49.902;8.590;2023-12-22T08:53:48;7.60;99.90
7494;DHT22;3788;49.902;8.590;2023-12-22T08:56:17;7.60;99.90
7494;DHT22;3788;49.902;8.590;2023-12-22T08:58:44;7.60;99.90
7494;DHT22;3788;49.902;8.590;2023-12-22T09:01:14;7.50;99.90
7494;DHT22;3788;49.902;8.590;2023-12-22T09:03:41;7.50;99.90
7494;DHT22;3788;49.902;8.590;2023-12-22T09:06:11;7.60;99.90
7494;DHT22;3788;49.902;8.590;2023-12-22T09:08:39;7.60;99.90
7494;DHT22;3788;49.902;8.590;2023-12-22T09:11:06;7.60;99.90
7494;DHT22;3788;49.902;8.590;2023-12-22T09:13:34;7.60;99.90
7494;DHT22;3788;49.902;8.590;2023-12-22T09:16:02;7.60;99.90
7494;DHT22;3788;49.902;8.590;2023-12-22T09:18:29;7.50;99.90
7494;DHT22;3788;49.902;8.590;2023-12-22T09:20:56;7.50;99.90
7494;DHT22;3788;49.902;8.590;2023-12-22T09:23:23;7.50;99.90
7494;DHT22;3788;49.902;8.590;2023-12-22T09:25:50;7.50;99.90
7494;DHT22;3788;49.902;8.590;2023-12-22T09:28:17;7.50;99.90
7494;DHT22;3788;49.902;8.590;2023-12-22T09:30:45;7.50;99.90
7494;DHT22;3788;49.902;8.590;2023-12-22T09:33:12;7.50;99.90
7494;DHT22;3788;49.902;8.590;2023-12-22T09:35:39;7.50;99.90
7494;DHT22;3788;49.902;8.590;2023-12-22T09:38:07;7.50;99.90
7494;DHT22;3788;49.902;8.590;2023-12-22T09:40:34;7.50;99.90
7494;DHT22;3788;49.902;8.590;2023-12-22T09:43:03;7.60;99.90
7494;DHT22;3788;49.902;8.590;2023-12-22T09:45:31;7.50;99.90
7494;DHT22;3788;49.902;8.590;2023-12-22T09:48:01;7.50;99.90
7494;DHT22;3788;49.902;8.590;2023-12-22T09:50:30;7.50;99.90
7494;DHT22;3788;49.902;8.590;2023-12-22T09:52:57;7.50;99.90
7494;DHT22;3788;49.902;8.590;2023-12-22T09:55:25;7.50;99.90
7494;DHT22;3788;49.902;8.590;2023-12-22T09:57:52;7.50;99.90
7494;DHT22;3788;49.902;8.590;2023-12-22T10:00:21;7.50;99.90
7494;DHT22;3788;49.902;8.590;2023-12-22T10:02:49;7.50;99.90
7494;DHT22;3788;49.902;8.590;2023-12-22T10:05:17;7.50;99.90
7494;DHT22;3788;49.902;8.590;2023-12-22T10:07:46;7.60;99.90
7494;DHT22;3788;49.902;8.590;2023-12-22T10:10:13;7.60;99.90
7494;DHT22;3788;49.902;8.590;2023-12-22T10:12:44;7.60;99.90
7494;DHT22;3788;49.902;8.590;2023-12-22T10:15:13;7.60;99.90
7494;DHT22;3788;49.902;8.590;2023-12-22T10:17:41;7.60;99.90
7494;DHT22;3788;49.902;8.590;2023-12-22T10:20:09;7.70;99.90
7494;DHT22;3788;49.902;8.590;2023-12-22T10:22:37;7.70;99.90
7494;DHT22;3788;49.902;8.590;2023-12-22T10:25:05;7.80;99.90
7494;DHT22;3788;49.902;8.590;2023-12-22T10:27:32;7.90;99.90
7494;DHT22;3788;49.902;8.590;2023-12-22T10:29:58;7.90;99.90
7494;DHT22;3788;49.902;8.590;2023-12-22T10:32:25;8.00;99.90
7494;DHT22;3788;49.902;8.590;2023-12-22T10:34:53;8.10;99.90
7494;DHT22;3788;49.902;8.590;2023-12-22T10:37:20;8.20;99.90
7494;DHT22;3788;49.902;8.590;2023-12-22T10:39:52;8.20;99.90
7494;DHT22;3788;49.902;8.590;2023-12-22T10:42:22;8.30;99.90
7494;DHT22;3788;49.902;8.590;2023-12-22T10:44:49;8.40;99.90
7494;DHT22;3788;49.902;8.590;2023-12-22T10:47:17;8.40;99.90
7494;DHT22;3788;49.902;8.590;2023-12-22T10:49:46;8.50;99.90
7494;DHT22;3788;49.902;8.590;2023-12-22T10:52:15;8.50;99.90
7494;DHT22;3788;49.902;8.590;2023-12-22T10:54:43;8.60;99.90
7494;DHT22;3788;49.902;8.590;2023-12-22T10:57:16;8.60;99.90
7494;DHT22;3788;49.902;8.590;2023-12-22T10:59:45;8.70;99.90
7494;DHT22;3788;49.902;8.590;2023-12-22T11:02:15;8.80;99.90
7494;DHT22;3788;49.902;8.590;2023-12-22T11:04:47;8.80;99.90
7494;DHT22;3788;49.902;8.590;2023-12-22T11:07:16;8.80;99.90
7494;DHT22;3788;49.902;8.590;2023-12-22T11:09:46;8.90;99.90
7494;DHT22;3788;49.902;8.590;2023-12-22T11:12:17;8.90;99.90
7494;DHT22;3788;49.902;8.590;2023-12-22T11:14:45;8.90;99.90
7494;DHT22;3788;49.902;8.590;2023-12-22T11:17:17;8.90;99.90
7494;DHT22;3788;49.902;8.590;2023-12-22T11:19:47;9.00;99.90
7494;DHT22;3788;49.902;8.590;2023-12-22T11:22:15;9.00;99.90
7494;DHT22;3788;49.902;8.590;2023-12-22T11:24:43;9.00;99.90
7494;DHT22;3788;49.902;8.590;2023-12-22T11:27:12;9.00;99.90
7494;DHT22;3788;49.902;8.590;2023-12-22T11:29:41;9.10;99.90
7494;DHT22;3788;49.902;8.590;2023-12-22T11:32:09;9.10;99.90
7494;DHT22;3788;49.902;8.590;2023-12-22T11:34:38;9.10;99.90
7494;DHT22;3788;49.902;8.590;2023-12-22T11:37:07;9.10;99.90
7494;DHT22;3788;49.902;8.590;2023-12-22T11:39:34;9.10;99.90
7494;DHT22;3788;49.902;8.590;2023-12-22T11:42:02;9.10;99.90
7494;DHT22;3788;49.902;8.590;2023-12-22T11:44:29;9.10;99.90
7494;DHT22;3788;49.902;8.590;2023-12-22T11:47:09;9.20;99.90
7494;DHT22;3788;49.902;8.590;2023-12-22T11:49:37;9.20;99.90
7494;DHT22;3788;49.902;8.590;2023-12-22T11:52:11;9.20;99.90
7494;DHT22;3788;49.902;8.590;2023-12-22T11:54:44;9.30;99.90
7494;DHT22;3788;49.902;8.590;2023-12-22T11:57:35;9.30;99.90
7494;DHT22;3788;49.902;8.590;2023-12-22T12:00:07;9.40;99.90
7494;DHT22;3788;49.902;8.590;2023-12-22T12:02:37;9.40;99.90
7494;DHT22;3788;49.902;8.590;2023-12-22T12:05:05;9.30;99.90
7494;DHT22;3788;49.902;8.590;2023-12-22T12:07:40;9.30;99.90
7494;DHT22;3788;49.902;8.590;2023-12-22T12:10:10;9.20;99.90
7494;DHT22;3788;49.902;8.590;2023-12-22T12:12:37;9.20;99.90
7494;DHT22;3788;49.902;8.590;2023-12-22T12:15:13;9.20;99.90
7494;DHT22;3788;49.902;8.590;2023-12-22T12:17:44;9.20;99.90
7494;DHT22;3788;49.902;8.590;2023-12-22T12:20:11;9.10;99.90
7494;DHT22;3788;49.902;8.590;2023-12-22T12:22:38;9.10;99.90
7494;DHT22;3788;49.902;8.590;2023-12-22T12:25:09;9.10;99.90
7494;DHT22;3788;49.902;8.590;2023-12-22T12:27:36;9.10;99.90
7494;DHT22;3788;49.902;8.590;2023-12-22T12:30:11;9.10;99.90
7494;DHT22;3788;49.902;8.590;2023-12-22T12:32:38;9.20;99.90
7494;DHT22;3788;49.902;8.590;2023-12-22T12:35:07;9.20;99.90
7494;DHT22;3788;49.902;8.590;2023-12-22T12:37:34;9.20;99.90
7494;DHT22;3788;49.902;8.590;2023-12-22T12:40:02;9.20;99.90
7494;DHT22;3788;49.902;8.590;2023-12-22T12:42:30;9.10;99.90
7494;DHT22;3788;49.902;8.590;2023-12-22T12:44:57;9.20;99.90
7494;DHT22;3788;49.902;8.590;2023-12-22T12:47:24;9.20;99.90
7494;DHT22;3788;49.902;8.590;2023-12-22T12:49:57;9.20;99.90
7494;DHT22;3788;49.902;8.590;2023-12-22T12:52:25;9.20;99.90
7494;DHT22;3788;49.902;8.590;2023-12-22T12:54:52;9.20;99.90
7494;DHT22;3788;49.902;8.590;2023-12-22T12:57:19;9.20;99.90
7494;DHT22;3788;49.902;8.590;2023-12-22T12:59:46;9.20;99.90
7494;DHT22;3788;49.902;8.590;2023-12-22T13:02:14;9.20;99.90
7494;DHT22;3788;49.902;8.590;2023-12-22T13:04:41;9.20;99.90
7494;DHT22;3788;49.902;8.590;2023-12-22T13:07:08;9.20;99.90
7494;DHT22;3788;49.902;8.590;2023-12-22T13:09:39;9.20;99.90
7494;DHT22;3788;49.902;8.590;2023-12-22T13:12:08;9.30;99.90
7494;DHT22;3788;49.902;8.590;2023-12-22T13:14:35;9.30;99.90
7494;DHT22;3788;49.902;8.590;2023-12-22T13:17:01;9.30;99.90
7494;DHT22;3788;49.902;8.590;2023-12-22T13:19:28;9.40;99.90
7494;DHT22;3788;49.902;8.590;2023-12-22T13:21:55;9.40;99.90
7494;DHT22;3788;49.902;8.590;2023-12-22T13:24:22;9.50;99.90
7494;DHT22;3788;49.902;8.590;2023-12-22T13:27:00;9.60;99.90
7494;DHT22;3788;49.902;8.590;2023-12-22T13:29:29;9.70;99.90
7494;DHT22;3788;49.902;8.590;2023-12-22T13:31:56;9.70;99.90
7494;DHT22;3788;49.902;8.590;2023-12-22T13:34:23;9.80;99.90
7494;DHT22;3788;49.902;8.590;2023-12-22T13:36:50;9.90;99.90
7494;DHT22;3788;49.902;8.590;2023-12-22T13:39:17;10.00;99.90
7494;DHT22;3788;49.902;8.590;2023-12-22T13:41:44;10.00;99.90
7494;DHT22;3788;49.902;8.590;2023-12-22T13:44:13;10.00;99.90
7494;DHT22;3788;49.902;8.590;2023-12-22T13:46:40;10.00;99.90
7494;DHT22;3788;49.902;8.590;2023-12-22T13:49:08;10.10;99.90
7494;DHT22;3788;49.902;8.590;2023-12-22T13:51:40;10.00;99.90
7494;DHT22;3788;49.902;8.590;2023-12-22T13:54:07;10.10;99.90
7494;DHT22;3788;49.902;8.590;2023-12-22T13:56:34;10.10;99.90
7494;DHT22;3788;49.902;8.590;2023-12-22T13:59:02;10.10;99.90
7494;DHT22;3788;49.902;8.590;2023-12-22T14:01:30;10.10;99.90
7494;DHT22;3788;49.902;8.590;2023-12-22T14:03:58;10.10;99.90
7494;DHT22;3788;49.902;8.590;2023-12-22T14:06:25;10.10;99.90
7494;DHT22;3788;49.902;8.590;2023-12-22T14:08:52;10.10;99.90
7494;DHT22;3788;49.902;8.590;2023-12-22T14:11:18;10.10;99.90
7494;DHT22;3788;49.902;8.590;2023-12-22T14:13:45;10.00;99.90
7494;DHT22;3788;49.902;8.590;2023-12-22T14:16:12;10.10;99.90
7494;DHT22;3788;49.902;8.590;2023-12-22T14:18:40;10.10;99.90
7494;DHT22;3788;49.902;8.590;2023-12-22T14:21:07;10.10;99.90
7494;DHT22;3788;49.902;8.590;2023-12-22T14:23:33;10.10;99.90
7494;DHT22;3788;49.902;8.590;2023-12-22T14:26:00;10.10;99.90
7494;DHT22;3788;49.902;8.590;2023-12-22T14:28:27;10.10;99.90
7494;DHT22;3788;49.902;8.590;2023-12-22T14:30:54;10.10;99.90
7494;DHT22;3788;49.902;8.590;2023-12-22T14:33:20;10.10;99.90
7494;DHT22;3788;49.902;8.590;2023-12-22T14:35:48;10.10;99.90
7494;DHT22;3788;49.902;8.590;2023-12-22T14:38:15;10.10;99.90
7494;DHT22;3788;49.902;8.590;2023-12-22T14:40:42;10.10;99.90
7494;DHT22;3788;49.902;8.590;2023-12-22T14:43:08;10.20;99.90
7494;DHT22;3788;49.902;8.590;2023-12-22T14:45:35;10.20;99.90
7494;DHT22;3788;49.902;8.590;2023-12-22T14:48:02;10.20;99.90
7494;DHT22;3788;49.902;8.590;2023-12-22T14:50:28;10.20;99.90
7494;DHT22;3788;49.902;8.590;2023-12-22T14:52:56;10.20;99.90
7494;DHT22;3788;49.902;8.590;2023-12-22T14:55:23;10.20;99.90
7494;DHT22;3788;49.902;8.590;2023-12-22T14:57:50;10.20;99.90
7494;DHT22;3788;49.902;8.590;2023-12-22T15:00:17;10.20;99.90
7494;DHT22;3788;49.902;8.590;2023-12-22T15:02:44;10.30;99.90
7494;DHT22;3788;49.902;8.590;2023-12-22T15:05:11;10.30;99.90
7494;DHT22;3788;49.902;8.590;2023-12-22T15:07:37;10.30;99.90
7494;DHT22;3788;49.902;8.590;2023-12-22T15:10:06;10.30;99.90
7494;DHT22;3788;49.902;8.590;2023-12-22T15:12:34;10.30;99.90
7494;DHT22;3788;49.902;8.590;2023-12-22T15:15:03;10.30;99.90
7494;DHT22;3788;49.902;8.590;2023-12-22T15:17:30;10.30;99.90
7494;DHT22;3788;49.902;8.590;2023-12-22T15:19:57;10.30;99.90
7494;DHT22;3788;49.902;8.590;2023-12-22T15:22:24;10.30;99.90
7494;DHT22;3788;49.902;8.590;2023-12-22T15:24:50;10.30;99.90
7494;DHT22;3788;49.902;8.590;2023-12-22T15:27:18;10.30;99.90
7494;DHT22;3788;49.902;8.590;2023-12-22T15:29:45;10.40;99.90
7494;DHT22;3788;49.902;8.590;2023-12-22T15:32:12;10.40;99.90
7494;DHT22;3788;49.902;8.590;2023-12-22T15:34:41;10.40;99.90
7494;DHT22;3788;49.902;8.590;2023-12-22T15:37:07;10.40;99.90
7494;DHT22;3788;49.902;8.590;2023-12-22T15:39:34;10.40;99.90
7494;DHT22;3788;49.902;8.590;2023-12-22T15:42:01;10.40;99.90
7494;DHT22;3788;49.902;8.590;2023-12-22T15:44:29;10.40;99.90
7494;DHT22;3788;49.902;8.590;2023-12-22T15:46:55;10.40;99.90
7494;DHT22;3788;49.902;8.590;2023-12-22T15:49:22;10.30;99.90
7494;DHT22;3788;49.902;8.590;2023-12-22T15:51:49;10.30;99.90
7494;DHT22;3788;49.902;8.590;2023-12-22T15:54:18;10.30;99.90
7494;DHT22;3788;49.902;8.590;2023-12-22T15:56:45;10.30;99.90
7494;DHT22;3788;49.902;8.590;2023-12-22T15:59:12;10.30;99.90
7494;DHT22;3788;49.902;8.590;2023-12-22T16:01:43;10.30;99.90
7494;DHT22;3788;49.902;8.590;2023-12-22T16:04:10;10.30;99.90
7494;DHT22;3788;49.902;8.590;2023-12-22T16:06:37;10.30;99.90
7494;DHT22;3788;49.902;8.590;2023-12-22T16:09:04;10.20;99.90
7494;DHT22;3788;49.902;8.590;2023-12-22T16:11:30;10.20;99.90
7494;DHT22;3788;49.902;8.590;2023-12-22T16:13:58;10.20;99.90
7494;DHT22;3788;49.902;8.590;2023-12-22T16:16:24;10.30;99.90